Time;durP1;ratioP1;P1;durP2;ratioP2;P2;SDS_P1;SDS_P2;PMS_P1;PMS_P2;Temp;Humidity;BMP_temperature;BMP_pressure;BME280_temperature;BME280_humidity;BME280_pressure;Samples;Min_cycle;Max_cycle;Signal;HPM_P1;HPM_P2
2020/12/08 06:02:35;;;;;;;;;;;;;;;;;;5081995;28;20377;-51
2020/12/08 06:05:01;;;;;;;15.70;6.28;;;;;;;;;;5071635;28;19912;-50
2020/12/08 06:07:31;;;;;;;9.70;3.05;;;;;;;;;;5072097;28;20025;-51
2020/12/08 06:10:08;;;;;;;4.18;1.30;;;;;;;;;;5072217;28;20486;-51
2020/12/08 06:12:35;;;;;;;7.72;1.60;;;;;;;;;;5075224;28;20558;-53
2020/12/08 06:15:01;;;;;;;5.38;1.20;;;;;;;;;;5077574;28;20093;-50
2020/12/08 06:17:27;;;;;;;1.45;0.90;;;;;;;;;;5068702;28;20126;-50
2020/12/08 06:19:53;;;;;;;2.92;1.10;;;;;;;;;;5075816;28;20031;-50
2020/12/08 06:22:19;;;;;;;2.42;1.00;;;;;;;;;;5073407;28;20032;-51
2020/12/08 06:24:49;;;;;;;3.17;1.55;;;;;;;;;;5072016;28;20071;-51
2020/12/08 06:27:20;;;;;;;5.50;0.82;;;;;;;;;;5071809;28;20063;-50
2020/12/08 06:29:53;;;;;;;2.58;1.08;;;;;;;;;;5069732;28;20032;-51
2020/12/08 06:32:23;;;;;;;2.53;1.00;;;;;;;;;;5067165;28;20033;-50
2020/12/08 06:34:49;;;;;;;5.93;1.15;;;;;;;;;;5084161;28;20070;-52
2020/12/08 06:37:15;;;;;;;3.03;1.02;;;;;;;;;;5080396;28;20047;-53
2020/12/08 06:39:41;;;;;;;6.93;1.30;;;;;;;;;;5077776;28;20024;-53
2020/12/08 06:42:14;;;;;;;10.10;1.70;;;;;;;;;;5073459;28;20020;-50
2020/12/08 06:44:40;;;;;;;5.32;2.17;;;;;;;;;;5079859;28;20034;-51
2020/12/08 06:47:06;;;;;;;4.38;1.50;;;;;;;;;;5086738;28;20059;-50
2020/12/08 06:49:36;;;;;;;5.35;1.90;;;;;;;;;;5085061;28;20016;-50
2020/12/08 06:52:03;;;;;;;4.55;1.45;;;;;;;;;;5084567;28;20119;-51
2020/12/08 06:54:30;;;;;;;4.10;1.55;;;;;;;;;;5083142;28;20032;-50
2020/12/08 06:57:02;;;;;;;3.88;1.38;;;;;;;;;;5083087;28;20044;-50
2020/12/08 06:59:29;;;;;;;3.65;1.27;;;;;;;;;;5081275;28;20213;-51
2020/12/08 07:01:56;;;;;;;4.88;1.27;;;;;;;;;;5079153;28;20052;-51
2020/12/08 07:04:23;;;;;;;5.57;1.45;;;;;;;;;;5067545;28;20055;-55
2020/12/08 07:06:49;;;;;;;5.05;1.83;;;;;;;;;;5068477;28;20017;-51
2020/12/08 07:09:16;;;;;;;6.40;1.20;;;;;;;;;;5057102;28;20040;-51
2020/12/08 07:11:42;;;;;;;4.45;1.23;;;;;;;;;;5066882;28;20040;-51
2020/12/08 07:14:09;;;;;;;3.15;1.17;;;;;;;;;;5072657;28;20077;-50
2020/12/08 07:16:35;;;;;;;4.88;0.82;;;;;;;;;;5070166;28;20036;-51
2020/12/08 07:19:06;;;;;;;5.90;1.05;;;;;;;;;;5063934;28;20032;-50
2020/12/08 07:21:32;;;;;;;2.60;0.95;;;;;;;;;;5070794;28;20115;-50
2020/12/08 07:23:59;;;;;;;2.15;0.80;;;;;;;;;;5069291;28;20048;-50
2020/12/08 07:26:26;;;;;;;2.17;0.80;;;;;;;;;;5070916;28;20032;-52
2020/12/08 07:28:56;;;;;;;5.38;1.08;;;;;;;;;;5071499;28;20024;-51
2020/12/08 07:31:23;;;;;;;2.03;0.80;;;;;;;;;;5066644;28;20040;-52
2020/12/08 07:33:50;;;;;;;2.13;1.02;;;;;;;;;;5058483;28;20029;-50
2020/12/08 07:36:30;;;;;;;3.08;1.60;;;;;;;;;;5067137;28;20564;-53
2020/12/08 07:38:57;;;;;;;7.28;4.60;;;;;;;;;;5067395;28;20119;-54
2020/12/08 07:41:27;;;;;;;7.57;3.17;;;;;;;;;;5062675;28;20048;-54
2020/12/08 07:43:54;;;;;;;5.75;3.45;;;;;;;;;;5058466;28;20023;-52
2020/12/08 07:46:24;;;;;;;1.48;1.10;;;;;;;;;;5068513;28;20511;-51
2020/12/08 07:49:07;;;;;;;3.80;1.45;;;;;;;;;;5063749;28;20024;-54
2020/12/08 07:51:34;;;;;;;3.25;1.50;;;;;;;;;;5067810;28;20047;-54
2020/12/08 07:54:01;;;;;;;5.93;1.60;;;;;;;;;;5067304;28;20393;-54
2020/12/08 07:56:31;;;;;;;10.95;1.23;;;;;;;;;;5068966;28;20037;-55
2020/12/08 07:58:58;;;;;;;8.30;2.20;;;;;;;;;;5067076;28;20039;-54
2020/12/08 08:01:24;;;;;;;3.60;1.38;;;;;;;;;;5069322;28;20067;-55
2020/12/08 08:03:50;;;;;;;9.07;1.65;;;;;;;;;;5068679;28;20016;-53
2020/12/08 08:06:17;;;;;;;8.70;1.48;;;;;;;;;;5068005;28;20032;-54
2020/12/08 08:08:47;;;;;;;7.00;1.52;;;;;;;;;;5068927;28;20047;-52
2020/12/08 08:11:13;;;;;;;6.50;1.40;;;;;;;;;;5065265;28;20084;-55
2020/12/08 08:13:39;;;;;;;5.10;1.20;;;;;;;;;;5067657;28;20104;-54
2020/12/08 08:16:10;;;;;;;5.53;1.45;;;;;;;;;;5068006;28;20103;-53
2020/12/08 08:18:36;;;;;;;5.30;1.63;;;;;;;;;;5070057;28;20029;-54
2020/12/08 08:21:02;;;;;;;5.60;1.27;;;;;;;;;;5071439;28;20024;-53
2020/12/08 08:23:30;;;;;;;4.82;1.40;;;;;;;;;;5068355;28;20401;-54
2020/12/08 08:25:56;;;;;;;3.53;1.02;;;;;;;;;;5062744;28;20036;-55
2020/12/08 08:28:23;;;;;;;7.50;1.40;;;;;;;;;;5065953;28;20082;-52
2020/12/08 08:30:49;;;;;;;5.65;1.20;;;;;;;;;;5068555;28;20032;-53
2020/12/08 08:33:15;;;;;;;6.57;1.75;;;;;;;;;;5068289;28;20393;-54
2020/12/08 08:35:41;;;;;;;4.78;2.10;;;;;;;;;;5066865;28;20059;-52
2020/12/08 08:38:08;;;;;;;13.80;4.25;;;;;;;;;;5064542;28;20049;-54
2020/12/08 08:40:34;;;;;;;8.00;3.72;;;;;;;;;;5065165;28;20035;-52
2020/12/08 08:43:00;;;;;;;9.43;3.80;;;;;;;;;;5065893;28;20183;-54
2020/12/08 08:45:27;;;;;;;13.95;4.38;;;;;;;;;;5067060;28;20448;-55
2020/12/08 08:47:53;;;;;;;9.02;2.50;;;;;;;;;;5064598;28;20116;-55
2020/12/08 08:50:19;;;;;;;10.10;4.30;;;;;;;;;;5067367;28;20075;-51
2020/12/08 08:52:46;;;;;;;22.67;11.90;;;;;;;;;;5064931;28;20024;-56
2020/12/08 08:55:12;;;;;;;13.43;7.22;;;;;;;;;;5067332;28;20056;-54
2020/12/08 08:57:38;;;;;;;5.82;3.10;;;;;;;;;;5061962;28;20654;-54
2020/12/08 09:00:06;;;;;;;4.28;2.28;;;;;;;;;;5066710;28;20040;-54
2020/12/08 09:02:32;;;;;;;6.75;3.50;;;;;;;;;;5066718;28;20052;-60
2020/12/08 09:04:58;;;;;;;12.98;4.18;;;;;;;;;;5067917;28;20464;-61
2020/12/08 09:07:26;;;;;;;10.25;3.95;;;;;;;;;;5066827;28;20034;-60
2020/12/08 09:09:52;;;;;;;5.93;2.45;;;;;;;;;;5067984;28;20536;-60
2020/12/08 09:12:18;;;;;;;7.03;2.63;;;;;;;;;;5067182;28;20032;-60
2020/12/08 09:14:45;;;;;;;13.48;2.67;;;;;;;;;;5065876;28;20045;-60
2020/12/08 09:17:12;;;;;;;6.68;2.40;;;;;;;;;;5066162;28;20446;-60
2020/12/08 09:19:38;;;;;;;9.02;2.83;;;;;;;;;;5066231;28;20074;-58
2020/12/08 09:22:06;;;;;;;7.60;2.40;;;;;;;;;;5065881;28;20111;-54
2020/12/08 09:24:32;;;;;;;8.60;2.70;;;;;;;;;;5068428;28;20044;-52
2020/12/08 09:26:59;;;;;;;8.45;2.17;;;;;;;;;;5066578;28;20039;-56
2020/12/08 09:29:25;;;;;;;12.07;3.10;;;;;;;;;;5066168;28;20020;-58
2020/12/08 09:31:58;;;;;;;10.25;3.50;;;;;;;;;;5066260;28;20476;-52
2020/12/08 09:34:24;;;;;;;7.15;2.55;;;;;;;;;;5057409;28;20239;-56
2020/12/08 09:36:52;;;;;;;8.23;4.80;;;;;;;;;;5067215;28;20017;-53
2020/12/08 09:39:19;;;;;;;13.30;1.80;;;;;;;;;;5066142;28;20036;-53
2020/12/08 09:41:45;;;;;;;12.68;4.00;;;;;;;;;;5066368;28;20489;-53
2020/12/08 09:44:12;;;;;;;10.40;3.28;;;;;;;;;;5066380;28;20043;-52
2020/12/08 09:46:38;;;;;;;12.40;3.03;;;;;;;;;;5066539;28;20028;-54
2020/12/08 09:49:05;;;;;;;5.53;1.80;;;;;;;;;;5066987;28;20040;-54
2020/12/08 09:51:31;;;;;;;6.28;2.10;;;;;;;;;;5067117;28;20024;-56
2020/12/08 09:53:57;;;;;;;6.15;1.63;;;;;;;;;;5062970;28;20436;-53
2020/12/08 09:56:24;;;;;;;8.07;1.85;;;;;;;;;;5064371;28;20098;-52
2020/12/08 09:58:51;;;;;;;5.18;1.73;;;;;;;;;;5064198;28;20048;-52
2020/12/08 10:01:24;;;;;;;9.00;1.70;;;;;;;;;;5066277;28;20057;-55
2020/12/08 10:03:50;;;;;;;6.32;1.65;;;;;;;;;;5065126;28;20103;-51
2020/12/08 10:06:16;;;;;;;8.25;1.58;;;;;;;;;;5060348;28;20119;-54
2020/12/08 10:08:42;;;;;;;4.57;1.80;;;;;;;;;;5065553;28;20147;-55
2020/12/08 10:11:13;;;;;;;4.22;1.90;;;;;;;;;;5064341;28;20033;-53
2020/12/08 10:13:39;;;;;;;4.97;1.50;;;;;;;;;;5059374;28;20033;-54
2020/12/08 10:16:06;;;;;;;5.72;1.50;;;;;;;;;;5062561;28;20017;-54
2020/12/08 10:18:32;;;;;;;7.80;1.65;;;;;;;;;;5065292;28;20090;-54
2020/12/08 10:20:58;;;;;;;5.28;1.45;;;;;;;;;;5064049;28;20052;-56
2020/12/08 10:23:24;;;;;;;3.15;1.35;;;;;;;;;;5065678;28;20020;-54
2020/12/08 10:25:50;;;;;;;5.07;1.55;;;;;;;;;;5065218;28;20077;-55
2020/12/08 10:28:16;;;;;;;5.40;1.40;;;;;;;;;;5064267;28;21319;-52
2020/12/08 10:30:42;;;;;;;10.35;2.53;;;;;;;;;;5067030;28;20032;-56
2020/12/08 10:33:08;;;;;;;5.13;2.25;;;;;;;;;;5065201;28;20044;-56
2020/12/08 10:35:34;;;;;;;7.05;1.80;;;;;;;;;;5062101;28;20037;-56
2020/12/08 10:38:01;;;;;;;6.22;1.30;;;;;;;;;;5064803;28;20025;-55
2020/12/08 10:40:27;;;;;;;7.07;1.33;;;;;;;;;;5054860;28;20028;-56
2020/12/08 10:42:53;;;;;;;7.13;1.20;;;;;;;;;;5063288;28;20035;-58
2020/12/08 10:45:19;;;;;;;4.45;1.30;;;;;;;;;;5067282;28;20020;-55
2020/12/08 10:47:45;;;;;;;5.95;1.02;;;;;;;;;;5067960;28;20435;-56
2020/12/08 10:50:11;;;;;;;6.63;1.70;;;;;;;;;;5068314;28;20059;-56
2020/12/08 10:52:37;;;;;;;7.40;1.33;;;;;;;;;;5069335;28;20029;-55
2020/12/08 10:55:03;;;;;;;2.72;1.55;;;;;;;;;;5070861;28;20490;-55
2020/12/08 10:57:29;;;;;;;14.07;1.25;;;;;;;;;;5069476;28;20024;-55
2020/12/08 10:59:57;;;;;;;4.90;1.00;;;;;;;;;;5068604;28;20082;-55
2020/12/08 11:02:23;;;;;;;9.40;1.20;;;;;;;;;;5068520;28;20052;-53
2020/12/08 11:04:49;;;;;;;6.40;1.40;;;;;;;;;;5068634;28;20057;-53
2020/12/08 11:07:15;;;;;;;11.10;1.75;;;;;;;;;;5069855;28;20087;-55
2020/12/08 11:09:43;;;;;;;3.67;0.93;;;;;;;;;;5069538;28;20025;-58
2020/12/08 11:12:10;;;;;;;8.18;1.80;;;;;;;;;;5069207;28;20025;-53
2020/12/08 11:14:36;;;;;;;8.73;2.40;;;;;;;;;;5068582;28;20481;-53
2020/12/08 11:17:02;;;;;;;7.30;1.58;;;;;;;;;;5068317;28;20427;-57
2020/12/08 11:19:28;;;;;;;5.85;2.58;;;;;;;;;;5067856;28;20033;-53
2020/12/08 11:21:54;;;;;;;6.65;1.20;;;;;;;;;;5069947;28;20036;-54
2020/12/08 11:24:20;;;;;;;4.85;1.35;;;;;;;;;;5069295;28;20067;-53
2020/12/08 11:26:46;;;;;;;3.30;0.90;;;;;;;;;;5067476;28;20513;-53
2020/12/08 11:29:12;;;;;;;6.40;1.23;;;;;;;;;;5065306;28;20020;-56
2020/12/08 11:31:39;;;;;;;3.35;1.10;;;;;;;;;;5065170;28;20133;-56
2020/12/08 11:34:05;;;;;;;5.72;1.33;;;;;;;;;;5069330;28;20024;-56
2020/12/08 11:36:31;;;;;;;6.47;1.00;;;;;;;;;;5069159;28;20028;-55
2020/12/08 11:38:57;;;;;;;4.05;0.93;;;;;;;;;;5067789;28;20432;-55
2020/12/08 11:41:23;;;;;;;5.72;0.90;;;;;;;;;;5067283;28;20048;-52
2020/12/08 11:43:49;;;;;;;5.68;0.85;;;;;;;;;;5067142;28;20501;-55
2020/12/08 11:46:15;;;;;;;4.13;0.85;;;;;;;;;;5068649;28;20105;-57
2020/12/08 11:48:42;;;;;;;3.83;1.17;;;;;;;;;;5069550;28;20163;-54
2020/12/08 11:51:08;;;;;;;4.63;0.85;;;;;;;;;;5066709;28;20052;-55
2020/12/08 11:53:34;;;;;;;5.65;1.00;;;;;;;;;;5067633;28;20127;-56
2020/12/08 11:56:00;;;;;;;2.47;0.98;;;;;;;;;;5067861;28;20024;-52
2020/12/08 11:58:26;;;;;;;4.45;1.00;;;;;;;;;;5067339;28;20032;-55
2020/12/08 12:00:53;;;;;;;4.80;1.20;;;;;;;;;;5067336;28;20063;-54
2020/12/08 12:03:19;;;;;;;1.70;0.80;;;;;;;;;;5068339;28;20028;-52
2020/12/08 12:05:46;;;;;;;3.13;0.77;;;;;;;;;;5067458;28;20024;-54
2020/12/08 12:08:12;;;;;;;5.03;1.80;;;;;;;;;;5067421;28;20489;-51
2020/12/08 12:10:38;;;;;;;11.48;4.55;;;;;;;;;;5068323;28;20037;-56
2020/12/08 12:13:04;;;;;;;4.32;1.48;;;;;;;;;;5065702;28;20021;-53
2020/12/08 12:15:30;;;;;;;8.30;2.72;;;;;;;;;;5069561;28;20032;-51
2020/12/08 12:17:56;;;;;;;4.30;1.45;;;;;;;;;;5067087;28;20023;-56
2020/12/08 12:20:22;;;;;;;3.83;1.70;;;;;;;;;;5066558;28;20123;-51
2020/12/08 12:22:48;;;;;;;4.00;1.08;;;;;;;;;;5065216;28;20029;-52
2020/12/08 12:25:15;;;;;;;5.82;1.30;;;;;;;;;;5067287;28;20401;-55
2020/12/08 12:27:42;;;;;;;6.43;1.13;;;;;;;;;;5069669;28;20484;-54
2020/12/08 12:30:08;;;;;;;4.68;1.23;;;;;;;;;;5070357;28;20818;-52
2020/12/08 12:32:34;;;;;;;6.35;0.88;;;;;;;;;;5065248;28;20044;-55
2020/12/08 12:35:01;;;;;;;4.82;0.80;;;;;;;;;;5065987;28;20117;-51
2020/12/08 12:37:31;;;;;;;4.35;0.70;;;;;;;;;;5067437;28;20032;-54
2020/12/08 12:39:57;;;;;;;3.47;0.70;;;;;;;;;;5064589;28;20401;-57
2020/12/08 12:42:23;;;;;;;4.18;0.80;;;;;;;;;;5068013;28;20041;-54
2020/12/08 12:44:50;;;;;;;2.45;1.10;;;;;;;;;;5065610;28;20044;-55
2020/12/08 12:47:16;;;;;;;2.75;0.73;;;;;;;;;;5065763;28;20031;-55
2020/12/08 12:49:42;;;;;;;4.28;0.90;;;;;;;;;;5067181;28;20103;-53
2020/12/08 12:52:08;;;;;;;4.20;1.00;;;;;;;;;;5066344;28;20037;-50
2020/12/08 12:54:34;;;;;;;3.70;0.80;;;;;;;;;;5063567;28;20025;-54
2020/12/08 12:57:00;;;;;;;5.50;0.90;;;;;;;;;;5062836;28;20029;-55
2020/12/08 12:59:27;;;;;;;2.20;1.00;;;;;;;;;;5061968;28;20508;-60
2020/12/08 13:01:53;;;;;;;4.38;0.85;;;;;;;;;;5064588;28;20053;-52
2020/12/08 13:04:19;;;;;;;3.42;0.80;;;;;;;;;;5065451;28;20027;-54
2020/12/08 13:06:47;;;;;;;4.15;1.15;;;;;;;;;;5060605;28;20038;-50
2020/12/08 13:09:13;;;;;;;5.03;0.70;;;;;;;;;;5068216;28;20020;-52
2020/12/08 13:11:39;;;;;;;3.65;0.85;;;;;;;;;;5065575;28;20512;-49
2020/12/08 13:14:05;;;;;;;7.43;1.10;;;;;;;;;;5065474;28;20025;-53
2020/12/08 13:16:31;;;;;;;3.78;0.90;;;;;;;;;;5064859;28;20037;-51
2020/12/08 13:18:57;;;;;;;5.07;0.93;;;;;;;;;;5066622;28;20060;-51
2020/12/08 13:21:24;;;;;;;6.28;0.90;;;;;;;;;;5063925;28;20534;-55
2020/12/08 13:23:50;;;;;;;5.05;0.88;;;;;;;;;;5063604;28;20035;-52
2020/12/08 13:26:16;;;;;;;2.25;0.80;;;;;;;;;;5066595;28;20016;-53
2020/12/08 13:28:42;;;;;;;5.15;1.15;;;;;;;;;;5065843;28;20031;-51
2020/12/08 13:31:09;;;;;;;2.60;0.70;;;;;;;;;;5065119;28;20039;-50
2020/12/08 13:33:35;;;;;;;7.30;1.10;;;;;;;;;;5066923;28;20025;-50
2020/12/08 13:36:02;;;;;;;3.38;0.70;;;;;;;;;;5064666;28;20036;-49
2020/12/08 13:38:28;;;;;;;7.57;1.30;;;;;;;;;;5063470;28;20028;-49
2020/12/08 13:40:57;;;;;;;4.63;0.80;;;;;;;;;;5065247;28;20404;-50
2020/12/08 13:43:24;;;;;;;4.93;0.60;;;;;;;;;;5063968;28;20032;-49
2020/12/08 13:45:50;;;;;;;2.67;0.60;;;;;;;;;;5064012;28;20131;-49
2020/12/08 13:48:16;;;;;;;4.03;0.80;;;;;;;;;;5066167;28;20025;-51
2020/12/08 13:50:43;;;;;;;2.90;0.80;;;;;;;;;;5061425;28;20028;-51
2020/12/08 13:53:13;;;;;;;2.95;0.90;;;;;;;;;;5064497;28;20405;-50
2020/12/08 13:55:40;;;;;;;2.65;0.70;;;;;;;;;;5062173;28;20035;-54
2020/12/08 13:58:06;;;;;;;3.40;0.75;;;;;;;;;;5064493;28;20459;-51
2020/12/08 14:00:33;;;;;;;6.03;1.00;;;;;;;;;;5065532;28;20040;-52
2020/12/08 14:03:00;;;;;;;2.60;0.60;;;;;;;;;;5059798;28;20610;-51
2020/12/08 14:05:26;;;;;;;3.22;1.05;;;;;;;;;;5058738;28;20029;-52
2020/12/08 14:07:52;;;;;;;9.43;1.05;;;;;;;;;;5055448;28;20036;-51
2020/12/08 14:10:19;;;;;;;4.68;1.10;;;;;;;;;;5065877;28;20071;-51
2020/12/08 14:12:45;;;;;;;2.38;0.80;;;;;;;;;;5053582;28;20379;-52
2020/12/08 14:15:12;;;;;;;3.42;0.80;;;;;;;;;;5069956;28;20024;-50
2020/12/08 14:17:39;;;;;;;6.32;0.77;;;;;;;;;;5065773;28;20097;-51
2020/12/08 14:20:05;;;;;;;3.17;0.60;;;;;;;;;;5065625;28;20053;-51
2020/12/08 14:22:31;;;;;;;4.15;0.90;;;;;;;;;;5054899;28;20033;-50
2020/12/08 14:25:00;;;;;;;3.22;0.80;;;;;;;;;;5069348;28;20013;-49
2020/12/08 14:27:27;;;;;;;6.78;0.93;;;;;;;;;;5064323;28;20060;-50
2020/12/08 14:29:53;;;;;;;3.90;1.00;;;;;;;;;;5069725;28;20082;-50
2020/12/08 14:32:19;;;;;;;4.30;1.20;;;;;;;;;;5063832;28;20024;-51
2020/12/08 14:34:45;;;;;;;3.03;0.88;;;;;;;;;;5058316;28;20401;-52
2020/12/08 14:37:11;;;;;;;4.85;1.10;;;;;;;;;;5066524;28;20587;-58
2020/12/08 14:39:37;;;;;;;3.85;1.10;;;;;;;;;;5065820;28;20162;-63
2020/12/08 14:42:03;;;;;;;8.10;1.30;;;;;;;;;;5068460;28;20043;-50
2020/12/08 14:44:29;;;;;;;2.67;0.88;;;;;;;;;;5068166;28;20487;-51
2020/12/08 14:46:55;;;;;;;6.10;1.00;;;;;;;;;;5068221;28;20032;-56
2020/12/08 14:49:22;;;;;;;5.50;0.80;;;;;;;;;;5067815;28;20025;-54
2020/12/08 14:51:51;;;;;;;3.25;0.90;;;;;;;;;;5053714;28;20501;-55
2020/12/08 14:54:17;;;;;;;4.72;1.08;;;;;;;;;;5071080;28;20086;-51
2020/12/08 14:56:43;;;;;;;5.13;1.00;;;;;;;;;;5065511;28;20032;-50
2020/12/08 14:59:09;;;;;;;5.50;0.98;;;;;;;;;;5065782;28;20040;-54
2020/12/08 15:01:35;;;;;;;3.80;0.98;;;;;;;;;;5067818;28;20049;-51
2020/12/08 15:04:01;;;;;;;6.28;1.90;;;;;;;;;;5063626;28;20505;-51
2020/12/08 15:06:28;;;;;;;12.63;1.33;;;;;;;;;;5059255;28;20127;-51
2020/12/08 15:08:54;;;;;;;5.88;1.27;;;;;;;;;;5067914;28;20023;-50
2020/12/08 15:11:23;;;;;;;6.07;0.93;;;;;;;;;;5062504;28;20036;-52
2020/12/08 15:13:49;;;;;;;4.13;0.70;;;;;;;;;;5065677;28;20024;-51
2020/12/08 15:16:15;;;;;;;1.98;0.77;;;;;;;;;;5053882;28;20071;-55
2020/12/08 15:18:42;;;;;;;4.70;1.20;;;;;;;;;;5069209;28;20036;-53
2020/12/08 15:21:10;;;;;;;4.00;1.13;;;;;;;;;;5067922;28;20040;-56
2020/12/08 15:23:36;;;;;;;1.73;0.70;;;;;;;;;;5058203;28;20021;-52
2020/12/08 15:26:02;;;;;;;3.55;0.90;;;;;;;;;;5054356;28;20033;-51
2020/12/08 15:28:28;;;;;;;3.15;0.90;;;;;;;;;;5064882;28;20033;-51
2020/12/08 15:30:56;;;;;;;6.80;0.88;;;;;;;;;;5066157;28;20032;-53
2020/12/08 15:33:23;;;;;;;3.63;0.68;;;;;;;;;;5053453;28;20025;-50
2020/12/08 15:35:49;;;;;;;2.72;0.75;;;;;;;;;;5060939;28;20503;-51
2020/12/08 15:38:15;;;;;;;2.72;0.70;;;;;;;;;;5063250;28;20021;-51
2020/12/08 15:40:41;;;;;;;5.32;0.88;;;;;;;;;;5053446;28;20075;-51
2020/12/08 15:43:09;;;;;;;4.15;1.35;;;;;;;;;;5067379;28;20052;-52
2020/12/08 15:45:35;;;;;;;3.95;0.75;;;;;;;;;;5069905;28;20038;-51
2020/12/08 15:48:01;;;;;;;6.75;0.80;;;;;;;;;;5064596;28;20062;-52
2020/12/08 15:50:27;;;;;;;3.85;1.00;;;;;;;;;;5061270;28;20112;-51
2020/12/08 15:52:54;;;;;;;4.95;1.20;;;;;;;;;;5054524;28;20048;-55
2020/12/08 15:55:20;;;;;;;6.28;1.30;;;;;;;;;;5067548;28;20506;-49
2020/12/08 15:57:46;;;;;;;5.10;1.27;;;;;;;;;;5054344;28;20408;-50
2020/12/08 16:00:12;;;;;;;9.02;1.33;;;;;;;;;;5064299;28;20039;-53
2020/12/08 16:02:39;;;;;;;7.72;1.30;;;;;;;;;;5064592;28;20074;-51
2020/12/08 16:05:06;;;;;;;4.57;1.20;;;;;;;;;;5064332;28;20136;-55
2020/12/08 16:07:32;;;;;;;10.18;1.40;;;;;;;;;;5066448;28;20033;-50
2020/12/08 16:09:58;;;;;;;8.98;1.58;;;;;;;;;;5064757;28;20476;-56
2020/12/08 16:12:24;;;;;;;6.45;1.40;;;;;;;;;;5066439;28;20036;-54
2020/12/08 16:14:50;;;;;;;7.78;1.45;;;;;;;;;;5060258;28;20378;-52
2020/12/08 16:17:16;;;;;;;4.63;1.40;;;;;;;;;;5062969;28;20028;-51
2020/12/08 16:19:42;;;;;;;9.05;1.80;;;;;;;;;;5065546;28;20058;-61
2020/12/08 16:22:08;;;;;;;2.20;0.90;;;;;;;;;;5062584;28;21433;-55
2020/12/08 16:24:34;;;;;;;6.18;1.17;;;;;;;;;;5067544;28;20025;-52
2020/12/08 16:27:01;;;;;;;3.30;0.63;;;;;;;;;;5066792;28;20025;-58
2020/12/08 16:29:27;;;;;;;2.58;0.82;;;;;;;;;;5066600;28;20017;-55
2020/12/08 16:31:57;;;;;;;7.90;1.00;;;;;;;;;;5066513;28;20040;-55
2020/12/08 16:34:23;;;;;;;5.22;0.77;;;;;;;;;;5063776;28;20078;-57
2020/12/08 16:36:50;;;;;;;6.63;0.80;;;;;;;;;;5066238;28;20409;-55
2020/12/08 16:39:16;;;;;;;5.70;0.80;;;;;;;;;;5064514;28;20086;-55
2020/12/08 16:41:42;;;;;;;1.70;1.08;;;;;;;;;;5062866;28;20029;-52
2020/12/08 16:44:08;;;;;;;3.22;0.75;;;;;;;;;;5062216;28;20033;-56
2020/12/08 16:46:35;;;;;;;2.15;0.57;;;;;;;;;;5062258;28;20071;-53
2020/12/08 16:49:01;;;;;;;4.55;1.00;;;;;;;;;;5064177;28;20034;-51
2020/12/08 16:51:32;;;;;;;9.15;1.20;;;;;;;;;;5065305;28;20032;-58
2020/12/08 16:53:59;;;;;;;5.50;1.13;;;;;;;;;;5064535;28;20032;-55
2020/12/08 16:56:25;;;;;;;4.53;1.70;;;;;;;;;;5063559;28;20020;-58
2020/12/08 16:58:51;;;;;;;7.40;2.20;;;;;;;;;;5063892;28;20075;-51
2020/12/08 17:01:18;;;;;;;2.42;0.70;;;;;;;;;;5057831;28;20075;-55
2020/12/08 17:03:44;;;;;;;10.65;4.28;;;;;;;;;;5053431;28;20025;-56
2020/12/08 17:06:10;;;;;;;11.10;3.72;;;;;;;;;;5053517;28;20033;-55
2020/12/08 17:08:36;;;;;;;8.45;1.20;;;;;;;;;;5045495;28;20029;-51
2020/12/08 17:11:02;;;;;;;10.60;1.02;;;;;;;;;;5052506;28;20108;-53
2020/12/08 17:13:29;;;;;;;4.70;1.30;;;;;;;;;;5049966;28;20033;-54
2020/12/08 17:15:55;;;;;;;5.88;1.00;;;;;;;;;;5053807;28;20123;-53
2020/12/08 17:18:21;;;;;;;7.47;1.60;;;;;;;;;;5056246;28;20038;-54
2020/12/08 17:20:47;;;;;;;7.93;1.95;;;;;;;;;;5057056;28;20036;-55
2020/12/08 17:23:13;;;;;;;6.03;1.70;;;;;;;;;;5053933;28;20017;-54
2020/12/08 17:25:39;;;;;;;12.35;2.42;;;;;;;;;;5059447;28;20067;-54
2020/12/08 17:28:05;;;;;;;10.23;1.70;;;;;;;;;;5059833;28;20029;-54
2020/12/08 17:30:31;;;;;;;10.07;2.10;;;;;;;;;;5063665;28;20029;-55
2020/12/08 17:32:58;;;;;;;8.55;3.40;;;;;;;;;;5061936;28;20209;-57
2020/12/08 17:35:25;;;;;;;8.32;2.30;;;;;;;;;;5061522;28;20029;-55
2020/12/08 17:37:51;;;;;;;8.38;2.28;;;;;;;;;;5063277;28;20036;-55
2020/12/08 17:40:24;;;;;;;17.15;5.00;;;;;;;;;;5050931;28;20040;-58
2020/12/08 17:42:51;;;;;;;11.27;5.60;;;;;;;;;;5052731;28;20044;-53
2020/12/08 17:45:18;;;;;;;14.23;6.15;;;;;;;;;;5062688;28;20017;-54
2020/12/08 17:47:44;;;;;;;17.98;6.03;;;;;;;;;;5054160;28;20497;-52
2020/12/08 17:50:12;;;;;;;14.40;3.38;;;;;;;;;;5054147;28;20500;-59
2020/12/08 17:52:38;;;;;;;16.77;5.95;;;;;;;;;;5062485;28;20513;-55
2020/12/08 17:55:05;;;;;;;12.18;3.22;;;;;;;;;;5063894;28;20017;-55
2020/12/08 17:57:38;;;;;;;11.38;2.80;;;;;;;;;;5052351;28;20021;-53
2020/12/08 18:00:06;;;;;;;16.17;4.53;;;;;;;;;;5049870;28;20033;-55
2020/12/08 18:02:33;;;;;;;5.60;2.20;;;;;;;;;;5056480;28;20448;-56
2020/12/08 18:04:59;;;;;;;17.48;3.55;;;;;;;;;;5052633;28;20090;-52
2020/12/08 18:07:25;;;;;;;7.78;3.05;;;;;;;;;;5050505;28;20076;-51
2020/12/08 18:09:51;;;;;;;15.20;6.20;;;;;;;;;;5052873;28;20111;-52
2020/12/08 18:12:17;;;;;;;8.15;3.20;;;;;;;;;;5061942;28;20040;-57
2020/12/08 18:14:43;;;;;;;16.13;5.25;;;;;;;;;;5059535;28;20107;-55
2020/12/08 18:17:10;;;;;;;7.05;1.60;;;;;;;;;;5062281;28;20096;-53
2020/12/08 18:19:37;;;;;;;12.75;2.75;;;;;;;;;;5053004;28;20025;-51
2020/12/08 18:22:08;;;;;;;6.90;2.85;;;;;;;;;;5050360;28;20072;-52
2020/12/08 18:24:34;;;;;;;5.60;1.40;;;;;;;;;;5063927;28;20104;-55
2020/12/08 18:27:00;;;;;;;10.88;1.98;;;;;;;;;;5064532;28;20030;-56
2020/12/08 18:29:28;;;;;;;5.28;1.50;;;;;;;;;;5064616;28;20436;-55
2020/12/08 18:31:54;;;;;;;14.35;2.15;;;;;;;;;;5065887;28;20028;-54
2020/12/08 18:34:21;;;;;;;8.52;2.00;;;;;;;;;;5064564;28;20405;-54
2020/12/08 18:36:47;;;;;;;13.38;1.70;;;;;;;;;;5052262;28;20044;-57
2020/12/08 18:39:13;;;;;;;9.45;1.27;;;;;;;;;;5054501;28;20028;-56
2020/12/08 18:41:39;;;;;;;5.68;1.23;;;;;;;;;;5061189;28;20072;-53
2020/12/08 18:44:05;;;;;;;9.20;1.90;;;;;;;;;;5065535;28;20028;-58
2020/12/08 18:46:32;;;;;;;5.18;1.70;;;;;;;;;;5058651;28;20032;-54
2020/12/08 18:48:58;;;;;;;9.90;2.25;;;;;;;;;;5054390;28;20489;-53
2020/12/08 18:51:25;;;;;;;14.48;2.65;;;;;;;;;;5068853;28;20541;-52
2020/12/08 18:53:51;;;;;;;7.93;1.50;;;;;;;;;;5065713;28;20020;-56
2020/12/08 18:56:17;;;;;;;15.48;1.45;;;;;;;;;;5064595;28;20028;-55
2020/12/08 18:58:43;;;;;;;8.68;1.60;;;;;;;;;;5067040;28;20024;-57
2020/12/08 19:01:10;;;;;;;4.22;1.27;;;;;;;;;;5068117;28;20044;-59
2020/12/08 19:03:36;;;;;;;10.85;2.25;;;;;;;;;;5072584;28;20024;-57
2020/12/08 19:06:03;;;;;;;8.60;1.10;;;;;;;;;;5069171;28;20036;-55
2020/12/08 19:08:30;;;;;;;5.43;1.08;;;;;;;;;;5068823;28;20031;-55
2020/12/08 19:10:56;;;;;;;3.05;0.68;;;;;;;;;;5069671;28;20037;-56
2020/12/08 19:13:22;;;;;;;2.83;0.82;;;;;;;;;;5070148;28;20037;-58
2020/12/08 19:15:52;;;;;;;6.20;0.88;;;;;;;;;;5067077;28;20024;-57
2020/12/08 19:18:18;;;;;;;2.85;0.70;;;;;;;;;;5058294;28;20466;-57
2020/12/08 19:20:45;;;;;;;2.38;0.60;;;;;;;;;;5065023;28;20037;-58
2020/12/08 19:23:11;;;;;;;3.53;0.60;;;;;;;;;;5061832;28;20485;-53
2020/12/08 19:25:37;;;;;;;5.68;1.55;;;;;;;;;;5075191;28;20135;-55
2020/12/08 19:28:04;;;;;;;5.85;0.88;;;;;;;;;;5063086;28;20060;-53
2020/12/08 19:30:30;;;;;;;8.85;1.77;;;;;;;;;;5065182;28;20028;-55
2020/12/08 19:32:56;;;;;;;12.52;6.43;;;;;;;;;;5067282;28;20040;-51
2020/12/08 19:35:23;;;;;;;2.13;1.17;;;;;;;;;;5063638;28;20297;-60
2020/12/08 19:37:49;;;;;;;6.13;5.00;;;;;;;;;;5064360;28;20888;-54
2020/12/08 19:40:16;;;;;;;7.85;4.18;;;;;;;;;;5063309;28;20103;-52
2020/12/08 19:42:43;;;;;;;17.15;14.57;;;;;;;;;;5065095;28;20684;-53
2020/12/08 19:45:09;;;;;;;14.48;10.27;;;;;;;;;;5063029;28;20142;-56
2020/12/08 19:47:36;;;;;;;13.85;9.30;;;;;;;;;;5060842;28;20016;-55
2020/12/08 19:50:04;;;;;;;9.05;3.92;;;;;;;;;;5057702;28;20035;-54
2020/12/08 19:52:30;;;;;;;5.88;2.85;;;;;;;;;;5060741;28;20495;-54
2020/12/08 19:54:57;;;;;;;7.85;2.55;;;;;;;;;;5066090;28;20016;-53
2020/12/08 19:57:24;;;;;;;16.65;8.07;;;;;;;;;;5067316;28;20029;-53
2020/12/08 19:59:50;;;;;;;12.85;2.90;;;;;;;;;;5065324;28;20024;-56
2020/12/08 20:02:17;;;;;;;9.88;2.90;;;;;;;;;;5063867;28;20049;-58
2020/12/08 20:04:43;;;;;;;13.35;4.20;;;;;;;;;;5067040;28;20032;-55
2020/12/08 20:07:09;;;;;;;11.70;4.72;;;;;;;;;;5065774;28;20036;-53
2020/12/08 20:09:35;;;;;;;9.00;3.50;;;;;;;;;;5062010;28;20025;-52
2020/12/08 20:12:02;;;;;;;15.13;3.58;;;;;;;;;;5064805;28;20513;-58
2020/12/08 20:14:28;;;;;;;13.30;5.35;;;;;;;;;;5064357;28;20034;-53
2020/12/08 20:16:54;;;;;;;15.93;6.53;;;;;;;;;;5066065;28;20037;-51
2020/12/08 20:19:20;;;;;;;14.68;5.97;;;;;;;;;;5058661;28;20031;-55
2020/12/08 20:21:47;;;;;;;13.63;5.57;;;;;;;;;;5063737;28;20453;-52
2020/12/08 20:24:13;;;;;;;11.43;3.30;;;;;;;;;;5064880;28;20025;-51
2020/12/08 20:26:42;;;;;;;12.48;2.95;;;;;;;;;;5065659;28;20029;-54
2020/12/08 20:29:08;;;;;;;8.55;3.40;;;;;;;;;;5064490;28;20033;-50
2020/12/08 20:31:37;;;;;;;12.07;4.03;;;;;;;;;;5067740;28;20577;-54
2020/12/08 20:34:04;;;;;;;8.35;4.97;;;;;;;;;;5065454;28;20097;-58
2020/12/08 20:36:30;;;;;;;11.07;5.30;;;;;;;;;;5067124;28;20025;-53
2020/12/08 20:38:57;;;;;;;13.93;6.90;;;;;;;;;;5065361;28;20051;-52